Time;durP1;ratioP1;P1;durP2;ratioP2;P2;SDS_P1;SDS_P2;PMS_P1;PMS_P2;Temp;Humidity;BMP_temperature;BMP_pressure;BME280_temperature;BME280_humidity;BME280_pressure;Samples;Min_cycle;Max_cycle;Signal;HPM_P1;HPM_P2
2022/03/16 00:02:23;;;;;;;36.05;18.38;;;;;;;6.71;95.99;100700.09;5069296;28;20036;-67
2022/03/16 00:04:50;;;;;;;41.00;18.98;;;;;;;6.69;95.72;100703.66;5067290;28;20051;-66
2022/03/16 00:07:16;;;;;;;38.55;19.70;;;;;;;6.74;96.28;100705.16;5068459;28;20020;-67
2022/03/16 00:09:43;;;;;;;47.75;20.67;;;;;;;6.68;96.05;100707.19;5069841;28;20035;-63
2022/03/16 00:12:09;;;;;;;41.00;19.73;;;;;;;6.66;96.35;100707.25;5068956;28;20064;-65
2022/03/16 00:14:35;;;;;;;44.80;19.60;;;;;;;6.68;96.29;100720.22;5069056;28;20032;-66
2022/03/16 00:17:00;;;;;;;42.67;20.50;;;;;;;6.67;96.55;100713.31;5068539;28;20040;-65
2022/03/16 00:19:26;;;;;;;46.63;20.45;;;;;;;6.65;96.70;100713.38;5069229;28;20020;-67
2022/03/16 00:21:51;;;;;;;46.22;20.48;;;;;;;6.64;96.92;100729.09;5068326;28;20018;-67
2022/03/16 00:24:16;;;;;;;41.65;20.42;;;;;;;6.62;96.53;100717.88;5067674;28;20590;-66
2022/03/16 00:26:41;;;;;;;42.58;19.90;;;;;;;6.58;96.15;100719.78;5069896;28;20034;-66
2022/03/16 00:29:07;;;;;;;45.00;20.05;;;;;;;6.59;96.34;100726.66;5068733;28;20032;-67
2022/03/16 00:31:33;;;;;;;44.40;20.02;;;;;;;6.58;96.25;100721.53;5068260;28;20020;-66
2022/03/16 00:33:58;;;;;;;47.95;21.42;;;;;;;6.56;96.45;100732.00;5069486;28;20409;-67
2022/03/16 00:36:24;;;;;;;42.90;22.55;;;;;;;6.58;96.22;100731.97;5069437;28;20032;-67
2022/03/16 00:38:49;;;;;;;47.08;22.23;;;;;;;6.55;95.59;100731.16;5069216;28;20111;-64
2022/03/16 00:41:15;;;;;;;46.38;21.27;;;;;;;6.50;96.05;100730.53;5069435;28;20191;-67
2022/03/16 00:43:41;;;;;;;44.83;21.67;;;;;;;6.48;96.00;100728.88;5067783;28;20029;-67
2022/03/16 00:46:07;;;;;;;42.08;21.65;;;;;;;6.46;95.82;100728.97;5069649;28;20024;-66
2022/03/16 00:48:33;;;;;;;47.58;21.10;;;;;;;6.49;96.21;100722.78;5069035;28;20040;-67
2022/03/16 00:50:58;;;;;;;42.25;20.65;;;;;;;6.47;95.91;100730.66;5069217;28;20039;-62
2022/03/16 00:53:23;;;;;;;39.42;20.85;;;;;;;6.49;95.81;100728.84;5069069;28;20043;-66
2022/03/16 00:55:49;;;;;;;46.63;20.77;;;;;;;6.47;95.61;100735.03;5068744;28;20084;-66
2022/03/16 00:58:14;;;;;;;47.45;20.38;;;;;;;6.45;96.04;100740.31;5069212;28;20032;-67
2022/03/16 01:00:39;;;;;;;43.85;20.20;;;;;;;6.45;95.69;100734.22;5071952;28;20336;-67
2022/03/16 01:03:04;;;;;;;48.28;21.25;;;;;;;6.41;95.89;100733.50;5068263;28;20037;-66
2022/03/16 01:05:30;;;;;;;45.42;20.95;;;;;;;6.40;96.05;100733.59;5066665;28;20032;-65
2022/03/16 01:07:55;;;;;;;40.00;19.75;;;;;;;6.40;95.92;100742.25;5068633;28;20397;-65
2022/03/16 01:10:20;;;;;;;45.63;20.90;;;;;;;6.38;95.68;100736.28;5068746;28;20029;-66
2022/03/16 01:12:46;;;;;;;47.25;21.80;;;;;;;6.41;96.32;100745.69;5068997;28;20509;-67
2022/03/16 01:15:11;;;;;;;45.00;21.15;;;;;;;6.38;96.05;100753.63;5061673;28;20112;-65
2022/03/16 01:17:37;;;;;;;43.20;21.50;;;;;;;6.38;96.50;100758.84;5068688;28;20509;-65
2022/03/16 01:20:02;;;;;;;50.90;21.70;;;;;;;6.36;96.05;100753.72;5068797;28;20078;-67
2022/03/16 01:22:28;;;;;;;43.75;21.42;;;;;;;6.35;96.68;100753.78;5068779;28;20020;-66
2022/03/16 01:24:53;;;;;;;51.20;22.85;;;;;;;6.32;96.93;100749.53;5065434;28;20111;-65
2022/03/16 01:27:18;;;;;;;45.40;20.27;;;;;;;6.27;97.03;100752.34;5068024;28;20082;-65
2022/03/16 01:29:44;;;;;;;46.13;21.00;;;;;;;6.23;97.25;100750.78;5068102;28;20487;-66
2022/03/16 01:32:09;;;;;;;51.70;20.67;;;;;;;6.18;97.37;100757.91;5066929;28;20032;-65
2022/03/16 01:34:35;;;;;;;49.10;22.67;;;;;;;6.18;97.51;100764.88;5068323;28;20036;-64
2022/03/16 01:37:01;;;;;;;48.55;22.50;;;;;;;6.15;97.46;100763.25;5069059;28;20032;-66
2022/03/16 01:39:27;;;;;;;44.90;22.08;;;;;;;6.17;97.82;100768.41;5066652;28;20188;-67
2022/03/16 01:41:52;;;;;;;41.75;21.95;;;;;;;6.12;97.66;100768.59;5068403;28;20056;-65
2022/03/16 01:44:37;;;;;;;47.83;22.50;;;;;;;6.10;98.00;100765.19;5067808;28;20035;-67
2022/03/16 01:47:03;;;;;;;50.55;21.48;;;;;;;6.12;97.54;100772.94;5065586;28;20536;-66
2022/03/16 01:49:28;;;;;;;45.13;22.13;;;;;;;6.15;97.76;100783.22;5068389;28;20016;-67
2022/03/16 01:51:54;;;;;;;49.63;23.20;;;;;;;6.13;97.85;100774.66;5072137;28;20020;-65
2022/03/16 01:54:19;;;;;;;44.83;21.50;;;;;;;6.12;97.58;100779.00;5071200;28;20044;-65
2022/03/16 01:56:44;;;;;;;44.72;22.95;;;;;;;6.08;97.44;100782.63;5071765;28;20366;-63
2022/03/16 01:59:10;;;;;;;48.97;21.73;;;;;;;6.04;97.60;100781.94;5071493;28;20038;-65
2022/03/16 02:01:35;;;;;;;44.65;21.75;;;;;;;6.02;98.16;100772.47;5071484;28;20036;-65
2022/03/16 02:04:00;;;;;;;49.95;23.95;;;;;;;6.02;97.98;100788.09;5071324;28;20107;-64
2022/03/16 02:06:26;;;;;;;52.85;23.50;;;;;;;5.97;97.87;100792.63;5071109;28;20055;-67
2022/03/16 02:08:51;;;;;;;45.78;21.25;;;;;;;6.00;98.35;100797.72;5070442;28;20116;-64
2022/03/16 02:11:16;;;;;;;54.08;22.83;;;;;;;5.99;98.41;100796.88;5069780;28;20520;-67
2022/03/16 02:13:41;;;;;;;52.05;23.63;;;;;;;5.95;98.12;100794.47;5070319;28;20032;-64
2022/03/16 02:16:08;;;;;;;48.17;22.42;;;;;;;5.93;98.25;100798.84;5071991;28;20025;-63
2022/03/16 02:18:34;;;;;;;58.13;23.73;;;;;;;5.91;98.83;100813.69;5072582;28;20035;-66
2022/03/16 02:21:02;;;;;;;49.47;21.92;;;;;;;5.87;98.56;100805.13;5072270;28;20044;-63
2022/03/16 02:23:27;;;;;;;52.53;22.77;;;;;;;5.87;98.85;100822.50;5070409;28;20098;-64
2022/03/16 02:25:54;;;;;;;54.65;22.27;;;;;;;5.87;98.83;100814.69;5068812;28;20663;-66
2022/03/16 02:28:20;;;;;;;52.33;23.05;;;;;;;5.85;98.72;100819.94;5071791;28;20116;-65
2022/03/16 02:30:47;;;;;;;54.22;24.05;;;;;;;5.78;98.56;100821.09;5070862;28;20063;-66
2022/03/16 02:33:12;;;;;;;50.03;23.92;;;;;;;5.73;98.75;100823.88;5071304;28;20039;-66
2022/03/16 02:35:38;;;;;;;55.35;23.48;;;;;;;5.72;99.11;100831.75;5072079;28;20025;-65
2022/03/16 02:38:03;;;;;;;56.30;23.45;;;;;;;5.72;98.93;100848.22;5072487;28;20526;-67
2022/03/16 02:40:29;;;;;;;54.05;24.60;;;;;;;5.70;98.83;100854.38;5071026;28;20046;-67
2022/03/16 02:42:54;;;;;;;56.85;25.92;;;;;;;5.73;98.50;100852.50;5074505;28;20017;-66
2022/03/16 02:45:19;;;;;;;56.15;25.00;;;;;;;5.74;97.93;100853.34;5071042;28;20108;-66
2022/03/16 02:47:45;;;;;;;57.47;23.88;;;;;;;5.74;98.03;100855.94;5071052;28;20522;-66
2022/03/16 02:50:12;;;;;;;63.28;24.45;;;;;;;5.71;97.36;100856.94;5070908;28;20028;-66
2022/03/16 02:52:38;;;;;;;57.45;23.25;;;;;;;5.69;97.33;100863.94;5071699;28;20147;-66
2022/03/16 02:55:05;;;;;;;59.92;24.20;;;;;;;5.68;97.28;100864.84;5072588;28;20051;-68
2022/03/16 02:57:30;;;;;;;56.85;22.88;;;;;;;5.68;96.62;100856.19;5070680;28;20093;-67
2022/03/16 02:59:55;;;;;;;58.45;23.67;;;;;;;5.64;95.99;100867.63;5070423;28;20502;-65
2022/03/16 03:02:21;;;;;;;50.67;21.45;;;;;;;5.63;96.12;100871.09;5069484;28;20036;-67
2022/03/16 03:04:46;;;;;;;55.40;23.08;;;;;;;5.55;96.46;100874.00;5069806;28;20032;-64
2022/03/16 03:07:11;;;;;;;51.50;22.08;;;;;;;5.48;96.92;100875.13;5070357;28;20039;-66
2022/03/16 03:09:36;;;;;;;56.55;24.15;;;;;;;5.42;96.77;100884.00;5069862;28;20517;-66
2022/03/16 03:12:03;;;;;;;58.80;21.98;;;;;;;5.40;97.05;100887.56;5071382;28;20021;-64
2022/03/16 03:14:30;;;;;;;52.30;21.92;;;;;;;5.40;96.53;100887.56;5067086;28;20048;-67
2022/03/16 03:16:55;;;;;;;47.70;22.48;;;;;;;5.45;96.19;100893.44;5064998;28;20061;-66
2022/03/16 03:19:23;;;;;;;53.22;22.45;;;;;;;5.48;96.16;100906.34;5070323;28;20474;-65
2022/03/16 03:21:49;;;;;;;50.17;21.57;;;;;;;5.50;95.47;100904.53;5071330;28;20028;-63
2022/03/16 03:24:14;;;;;;;46.53;22.15;;;;;;;5.50;95.33;100900.19;5066903;28;20036;-67
2022/03/16 03:26:40;;;;;;;52.28;21.88;;;;;;;5.49;95.07;100903.69;5070049;28;20040;-66
2022/03/16 03:29:06;;;;;;;50.92;22.27;;;;;;;5.47;95.46;100902.03;5069589;28;20398;-63
2022/03/16 03:31:31;;;;;;;47.40;22.20;;;;;;;5.45;95.38;100904.72;5068878;28;20048;-65
2022/03/16 03:33:56;;;;;;;46.25;20.50;;;;;;;5.42;95.10;100907.41;5070102;28;20084;-65
2022/03/16 03:36:22;;;;;;;50.25;19.98;;;;;;;5.39;94.88;100915.31;5069804;28;20070;-68
2022/03/16 03:38:47;;;;;;;45.55;19.40;;;;;;;5.36;94.57;100912.81;5070702;28;20051;-67
2022/03/16 03:41:12;;;;;;;45.42;18.45;;;;;;;5.35;94.60;100911.13;5067833;28;20093;-67
2022/03/16 03:43:38;;;;;;;46.40;20.23;;;;;;;5.34;94.27;100917.25;5069442;28;20075;-66
2022/03/16 03:46:03;;;;;;;47.63;18.92;;;;;;;5.30;94.51;100915.63;5069983;28;20025;-65
2022/03/16 03:48:28;;;;;;;41.05;19.42;;;;;;;5.28;94.51;100912.25;5068282;28;20606;-67
2022/03/16 03:50:54;;;;;;;44.20;19.75;;;;;;;5.21;94.89;100911.59;5069304;28;20045;-67
2022/03/16 03:53:19;;;;;;;51.85;19.50;;;;;;;5.13;95.01;100918.00;5069281;28;20125;-66
2022/03/16 03:55:44;;;;;;;42.80;19.67;;;;;;;5.08;95.63;100913.78;5068253;28;20498;-67
2022/03/16 03:58:10;;;;;;;50.55;19.83;;;;;;;4.98;95.80;100922.78;5070417;28;20017;-66
2022/03/16 04:00:35;;;;;;;53.75;19.00;;;;;;;5.03;95.67;100920.88;5069392;28;20036;-65
2022/03/16 04:03:00;;;;;;;49.60;21.30;;;;;;;5.01;95.84;100927.91;5069193;28;20036;-65
2022/03/16 04:05:25;;;;;;;55.88;21.50;;;;;;;5.00;95.97;100927.94;5067299;28;20134;-66
2022/03/16 04:07:51;;;;;;;49.47;20.15;;;;;;;4.98;95.70;100930.59;5068231;28;20436;-66
2022/03/16 04:10:17;;;;;;;41.92;18.65;;;;;;;4.94;95.60;100931.59;5069568;28;20052;-65
2022/03/16 04:12:43;;;;;;;47.88;20.70;;;;;;;4.91;95.91;100931.69;5069050;28;20059;-65
2022/03/16 04:15:08;;;;;;;51.47;21.52;;;;;;;4.87;96.17;100937.91;5068760;28;20053;-65
2022/03/16 04:17:34;;;;;;;60.03;21.58;;;;;;;4.80;96.55;100936.41;5069300;28;20667;-63
2022/03/16 04:19:59;;;;;;;50.65;21.25;;;;;;;4.81;96.37;100940.69;5068755;28;20120;-66
2022/03/16 04:22:28;;;;;;;53.70;20.58;;;;;;;4.76;96.09;100924.41;5069031;28;20591;-65
2022/03/16 04:24:56;;;;;;;;;;;;;;;4.70;96.14;100938.44;5063270;28;20024;-65
2022/03/16 04:27:22;;;;;;;48.03;19.73;;;;;;;4.65;96.68;100929.09;5069191;28;19923;-65
2022/03/16 04:29:47;;;;;;;54.53;20.88;;;;;;;4.63;96.85;100933.47;5068309;28;20028;-64
2022/03/16 04:32:13;;;;;;;48.13;20.13;;;;;;;4.55;96.99;100928.53;5068728;28;20020;-66
2022/03/16 04:34:38;;;;;;;47.83;19.38;;;;;;;4.46;97.22;100929.69;5069279;28;20033;-67
2022/03/16 04:37:04;;;;;;;53.58;20.48;;;;;;;4.40;97.68;100937.66;5069807;28;20027;-65
2022/03/16 04:39:30;;;;;;;60.85;21.80;;;;;;;4.35;97.76;100927.41;5068707;28;20621;-64
2022/03/16 04:41:56;;;;;;;54.20;20.52;;;;;;;4.34;98.05;100936.13;5069111;28;20446;-66
2022/03/16 04:44:21;;;;;;;52.83;22.23;;;;;;;4.36;97.60;100942.09;5067828;28;20020;-66
2022/03/16 04:46:46;;;;;;;50.47;20.90;;;;;;;4.29;97.76;100944.91;5068371;28;20056;-67
2022/03/16 04:49:12;;;;;;;44.85;19.75;;;;;;;4.26;97.88;100945.00;5068697;28;20433;-66
2022/03/16 04:51:37;;;;;;;60.78;22.35;;;;;;;4.23;98.13;100945.97;5068214;28;20032;-67
2022/03/16 04:54:03;;;;;;;53.03;22.30;;;;;;;4.16;97.95;100947.06;5068176;28;20171;-65
2022/03/16 04:56:29;;;;;;;58.72;21.67;;;;;;;4.14;98.38;100948.81;5069736;28;20194;-67
2022/03/16 04:58:54;;;;;;;55.53;21.65;;;;;;;4.09;98.69;100946.38;5068853;28;20518;-66
2022/03/16 05:01:20;;;;;;;53.97;22.60;;;;;;;4.06;99.06;100946.47;5050096;28;20016;-67
2022/03/16 05:03:45;;;;;;;54.85;22.10;;;;;;;4.06;98.92;100958.59;5067111;28;20383;-64
2022/03/16 05:06:11;;;;;;;59.30;24.67;;;;;;;4.04;98.71;100952.59;5068331;28;20033;-67
2022/03/16 05:08:37;;;;;;;54.75;22.50;;;;;;;4.01;99.03;100966.53;5067295;28;20085;-66
2022/03/16 05:11:04;;;;;;;57.33;23.67;;;;;;;3.98;98.93;100958.81;5067872;28;20040;-65
2022/03/16 05:13:29;;;;;;;56.13;22.95;;;;;;;3.94;99.02;100957.22;5067930;28;20095;-66
2022/03/16 05:15:55;;;;;;;45.53;20.70;;;;;;;3.93;99.15;100952.91;5061601;28;20119;-65
2022/03/16 05:18:21;;;;;;;64.75;22.60;;;;;;;3.92;98.86;100958.97;5067456;28;20037;-65
2022/03/16 05:20:47;;;;;;;52.13;22.13;;;;;;;3.90;98.90;100952.16;5069022;28;20060;-66
2022/03/16 05:23:12;;;;;;;66.70;25.08;;;;;;;3.83;99.41;100957.50;5065935;28;20082;-67
2022/03/16 05:25:37;;;;;;;56.50;21.52;;;;;;;3.82;99.02;100973.09;5064766;28;20036;-66
2022/03/16 05:28:03;;;;;;;50.15;21.77;;;;;;;3.77;99.25;100968.03;5072156;28;20123;-65
2022/03/16 05:30:29;;;;;;;57.97;24.08;;;;;;;3.73;99.20;100973.38;5071704;28;20036;-66
2022/03/16 05:32:57;;;;;;;66.03;23.42;;;;;;;3.73;99.18;100978.56;5068329;28;20048;-65
2022/03/16 05:35:22;;;;;;;58.50;23.65;;;;;;;3.70;99.23;100989.00;5063969;28;20123;-66
2022/03/16 05:37:47;;;;;;;58.67;24.08;;;;;;;3.68;99.24;100983.03;5070970;28;20115;-65
2022/03/16 05:40:13;;;;;;;63.90;23.45;;;;;;;3.66;99.41;100984.81;5071624;28;20486;-66
2022/03/16 05:42:38;;;;;;;60.42;23.45;;;;;;;3.62;99.70;100984.03;5072426;28;20036;-66
2022/03/16 05:45:06;;;;;;;56.40;23.02;;;;;;;3.60;99.99;100989.28;5071401;28;20033;-64
2022/03/16 05:47:32;;;;;;;59.10;22.92;;;;;;;3.57;100.00;100986.75;5070709;28;20032;-64
2022/03/16 05:49:57;;;;;;;54.95;23.15;;;;;;;3.60;100.00;100993.63;5072355;28;20032;-66
2022/03/16 05:52:24;;;;;;;50.60;22.45;;;;;;;3.56;100.00;100999.75;5072114;28;20046;-66
2022/03/16 05:54:55;;;;;;;72.43;25.85;;;;;;;3.62;100.00;101008.22;5073497;28;20438;-66
2022/03/16 05:57:21;;;;;;;55.60;23.88;;;;;;;3.66;100.00;101013.31;5072712;28;20130;-66
2022/03/16 05:59:47;;;;;;;54.28;21.35;;;;;;;3.66;100.00;101016.78;5066577;28;20144;-67
2022/03/16 06:02:13;;;;;;;53.58;22.63;;;;;;;3.69;100.00;101021.88;5068721;28;20119;-64
2022/03/16 06:04:39;;;;;;;52.22;22.13;;;;;;;3.73;99.99;101028.69;5068831;28;20170;-66
2022/03/16 06:07:06;;;;;;;68.82;22.85;;;;;;;4.09;100.00;101034.63;5070098;28;20024;-63
2022/03/16 06:09:31;;;;;;;62.70;21.95;;;;;;;4.12;99.32;101039.72;5072144;28;20025;-64
2022/03/16 06:11:58;;;;;;;57.80;23.17;;;;;;;4.08;97.71;101034.66;5071676;28;20033;-66
2022/03/16 06:14:23;;;;;;;48.55;19.45;;;;;;;4.08;97.37;101037.25;5068806;28;20079;-66
2022/03/16 06:16:49;;;;;;;49.78;21.55;;;;;;;4.05;97.72;101038.19;5069333;28;20033;-65
2022/03/16 06:19:14;;;;;;;59.45;20.85;;;;;;;4.02;97.69;101037.44;5072057;28;20036;-66
2022/03/16 06:21:39;;;;;;;47.50;21.23;;;;;;;3.99;97.78;101038.34;5068457;28;20040;-65
2022/03/16 06:24:05;;;;;;;54.00;24.02;;;;;;;3.98;98.28;101041.00;5065144;28;20063;-66
2022/03/16 06:26:31;;;;;;;65.50;22.85;;;;;;;4.00;98.93;101041.78;5071038;28;20020;-68
2022/03/16 06:28:56;;;;;;;54.40;21.27;;;;;;;4.03;98.05;101050.34;5071453;28;20035;-67
2022/03/16 06:31:22;;;;;;;48.80;19.90;;;;;;;4.09;97.85;101054.53;5069651;28;20451;-63
2022/03/16 06:33:47;;;;;;;53.42;20.83;;;;;;;4.10;97.62;101053.63;5070607;28;20020;-65
2022/03/16 06:36:13;;;;;;;56.08;21.58;;;;;;;4.10;97.58;101057.06;5069112;28;20392;-64
2022/03/16 06:38:38;;;;;;;52.65;21.38;;;;;;;4.14;97.78;101060.44;5071808;28;20069;-64
2022/03/16 06:41:03;;;;;;;52.00;21.08;;;;;;;4.18;97.25;101069.84;5074917;28;20055;-63
2022/03/16 06:43:29;;;;;;;46.20;20.85;;;;;;;4.16;96.94;101061.25;5080737;28;20020;-67
2022/03/16 06:45:54;;;;;;;50.40;20.77;;;;;;;4.18;97.40;101069.84;5071290;28;20099;-65
2022/03/16 06:48:23;;;;;;;48.92;20.23;;;;;;;4.22;97.38;101068.00;5072154;28;20040;-66
2022/03/16 06:50:48;;;;;;;57.92;21.95;;;;;;;4.26;97.38;101069.63;5067191;28;20119;-65
2022/03/16 06:53:13;;;;;;;53.42;21.88;;;;;;;4.32;97.09;101072.03;5061849;28;20032;-66
2022/03/16 06:55:39;;;;;;;57.53;22.05;;;;;;;4.41;96.79;101061.38;5071286;28;20033;-65
2022/03/16 06:58:04;;;;;;;48.00;19.52;;;;;;;4.48;96.13;101070.69;5070214;28;20454;-67
2022/03/16 07:00:29;;;;;;;58.90;21.60;;;;;;;4.54;96.55;101069.69;5056764;28;20032;-64
2022/03/16 07:02:58;;;;;;;48.85;19.15;;;;;;;4.61;96.17;101064.25;5070761;28;20583;-66
2022/03/16 07:05:26;;;;;;;46.58;21.15;;;;;;;4.68;95.67;101066.69;5070163;28;20056;-68
2022/03/16 07:07:51;;;;;;;45.70;21.42;;;;;;;4.75;95.71;101069.06;5070084;28;20093;-64
2022/03/16 07:10:17;;;;;;;66.30;22.38;;;;;;;4.85;95.04;101067.00;5069615;28;20025;-65
2022/03/16 07:12:42;;;;;;;84.93;36.55;;;;;;;4.93;94.67;101075.44;5067593;28;20032;-66
2022/03/16 07:15:09;;;;;;;66.70;28.45;;;;;;;5.01;94.22;101073.44;5061997;28;20413;-68
2022/03/16 07:17:34;;;;;;;66.45;29.30;;;;;;;5.10;93.38;101077.50;5062485;28;20476;-66
2022/03/16 07:19:59;;;;;;;57.30;25.88;;;;;;;5.21;93.53;101080.59;5062374;28;20044;-67
2022/03/16 07:22:24;;;;;;;74.70;30.58;;;;;;;5.29;93.49;101082.97;5063917;28;20032;-66
2022/03/16 07:24:50;;;;;;;118.00;42.47;;;;;;;5.40;93.17;101090.41;5063649;28;20130;-66
2022/03/16 07:27:15;;;;;;;85.20;33.92;;;;;;;5.47;93.40;101097.97;5061935;28;20520;-68
2022/03/16 07:29:40;;;;;;;50.25;23.00;;;;;;;5.56;93.00;101089.88;5062491;28;20046;-65
2022/03/16 07:32:06;;;;;;;83.88;33.10;;;;;;;5.68;91.96;101086.00;5064514;28;20037;-67
2022/03/16 07:34:31;;;;;;;48.85;20.98;;;;;;;5.80;91.90;101093.38;5062414;28;20055;-72
2022/03/16 07:36:57;;;;;;;43.72;20.35;;;;;;;5.91;91.16;101090.41;5062813;28;20055;-65
2022/03/16 07:39:22;;;;;;;51.40;22.70;;;;;;;6.07;90.59;101094.19;5064327;28;20037;-63
2022/03/16 07:41:48;;;;;;;48.72;21.80;;;;;;;6.16;89.97;101095.66;5064791;28;20048;-66
2022/03/16 07:44:13;;;;;;;45.00;21.48;;;;;;;6.27;90.13;101097.88;5061820;28;20037;-66
2022/03/16 07:46:38;;;;;;;83.35;39.53;;;;;;;6.37;89.26;101106.19;5063329;28;20109;-65
2022/03/16 07:49:04;;;;;;;50.53;23.42;;;;;;;6.43;88.75;101101.59;5065758;28;20413;-66
2022/03/16 07:51:29;;;;;;;52.75;23.08;;;;;;;6.57;88.77;101114.13;5064408;28;20028;-65
2022/03/16 07:53:55;;;;;;;58.42;20.63;;;;;;;6.62;87.70;101114.81;5063782;28;20037;-64
2022/03/16 07:56:20;;;;;;;39.35;17.98;;;;;;;6.72;87.63;101123.16;5062349;28;20028;-67
2022/03/16 07:58:45;;;;;;;41.33;18.25;;;;;;;6.79;87.05;101122.00;5070897;28;20463;-66
2022/03/16 08:01:11;;;;;;;42.80;18.42;;;;;;;6.86;86.90;101120.88;5062521;28;20116;-68
2022/03/16 08:03:36;;;;;;;35.55;16.55;;;;;;;6.94;86.53;101115.38;5063318;28;20048;-67
2022/03/16 08:06:02;;;;;;;42.42;19.90;;;;;;;7.07;86.85;101123.53;5062954;28;20032;-66
2022/03/16 08:08:28;;;;;;;43.55;19.08;;;;;;;7.18;86.28;101114.38;5061105;28;20084;-65
2022/03/16 08:10:54;;;;;;;39.45;18.67;;;;;;;7.37;85.53;101117.09;5062945;28;20024;-66
2022/03/16 08:13:19;;;;;;;39.40;19.35;;;;;;;7.42;85.33;101109.13;5062435;28;20032;-66
2022/03/16 08:15:44;;;;;;;42.63;17.35;;;;;;;7.55;85.32;101125.97;5062588;28;20017;-66
2022/03/16 08:18:10;;;;;;;36.63;16.38;;;;;;;7.61;85.01;101124.88;5066038;28;20043;-65
2022/03/16 08:20:35;;;;;;;35.25;16.73;;;;;;;7.65;84.60;101118.59;5068652;28;20036;-66
2022/03/16 08:23:00;;;;;;;35.92;16.30;;;;;;;7.76;85.06;101132.91;5070487;28;20041;-65
2022/03/16 08:25:26;;;;;;;36.53;15.98;;;;;;;7.82;84.26;101123.94;5068119;28;20077;-65
2022/03/16 08:27:51;;;;;;;38.13;16.70;;;;;;;7.97;83.03;101128.56;5063351;28;20024;-65
2022/03/16 08:30:17;;;;;;;36.17;15.25;;;;;;;8.01;81.51;101121.44;5061284;28;20092;-65
2022/03/16 08:32:42;;;;;;;33.58;14.35;;;;;;;8.05;81.46;101128.22;5064800;28;20121;-63
2022/03/16 08:35:08;;;;;;;44.35;16.85;;;;;;;8.09;81.96;101129.78;5063256;28;20474;-64
2022/03/16 08:37:35;;;;;;;38.65;19.00;;;;;;;8.17;81.93;101129.47;5062853;28;20024;-66
2022/03/16 08:40:00;;;;;;;32.00;15.27;;;;;;;8.22;81.27;101124.88;5066234;28;20046;-65
2022/03/16 08:42:25;;;;;;;38.83;15.23;;;;;;;8.26;79.99;101123.81;5063978;28;20040;-64
2022/03/16 08:44:52;;;;;;;32.42;14.65;;;;;;;8.36;80.37;101135.56;5062505;28;20514;-65
2022/03/16 08:47:20;;;;;;;31.63;16.40;;;;;;;8.50;80.62;101132.38;5068567;28;20097;-65
2022/03/16 08:49:46;;;;;;;30.95;14.30;;;;;;;8.53;79.66;101131.38;5070549;28;20028;-66
2022/03/16 08:52:12;;;;;;;32.55;14.45;;;;;;;8.61;79.65;101134.53;5069909;28;20066;-65
2022/03/16 08:54:40;;;;;;;27.45;13.73;;;;;;;8.69;78.89;101135.84;5068549;28;20064;-68
2022/03/16 08:57:06;;;;;;;32.92;15.25;;;;;;;8.81;78.16;101142.28;5069595;28;20045;-69
2022/03/16 08:59:31;;;;;;;28.42;13.18;;;;;;;8.91;77.58;101138.34;5065136;28;20415;-65
2022/03/16 09:01:56;;;;;;;31.42;14.73;;;;;;;9.02;77.70;101137.84;5072998;28;20075;-69
2022/03/16 09:04:21;;;;;;;31.48;14.10;;;;;;;9.12;76.59;101143.47;5071365;28;20020;-66
2022/03/16 09:06:48;;;;;;;27.70;12.65;;;;;;;9.15;75.47;101143.34;5073045;28;20032;-68
2022/03/16 09:09:14;;;;;;;30.60;13.27;;;;;;;9.14;76.16;101145.09;5073163;28;20056;-71
2022/03/16 09:11:40;;;;;;;31.55;14.63;;;;;;;9.11;75.97;101149.63;5094057;22;20072;-74
2022/03/16 09:14:06;;;;;;;25.73;13.68;;;;;;;9.27;76.19;101141.91;5058088;28;20094;-69
2022/03/16 09:16:52;;;;;;;34.00;14.35;;;;;;;9.27;75.90;101145.38;5063269;28;20020;-70
2022/03/16 09:19:20;;;;;;;36.08;14.13;;;;;;;9.35;75.91;101143.25;4973565;28;20050;-71
2022/03/16 09:21:47;;;;;;;32.85;14.35;;;;;;;9.48;75.77;101153.13;4981352;28;20186;-69
2022/03/16 09:24:13;;;;;;;33.78;14.02;;;;;;;9.50;75.27;101153.91;4968391;28;20121;-70
2022/03/16 09:26:39;;;;;;;29.42;13.85;;;;;;;9.57;75.27;101152.69;4942732;28;20078;-70
2022/03/16 09:29:08;;;;;;;30.10;12.73;;;;;;;9.70;74.56;101153.75;4961876;28;20039;-68
2022/03/16 09:31:35;;;;;;;24.95;12.95;;;;;;;9.79;73.53;101155.06;4962495;28;20039;-71
2022/03/16 09:34:01;;;;;;;31.20;12.85;;;;;;;9.86;73.56;101154.72;4962363;28;20058;-70
2022/03/16 09:36:27;;;;;;;29.73;13.70;;;;;;;9.89;72.59;101153.69;4963587;28;20089;-71
2022/03/16 09:38:55;;;;;;;31.33;11.85;;;;;;;9.97;71.63;101161.16;4962699;28;20039;-69
2022/03/16 09:41:21;;;;;;;27.20;12.43;;;;;;;10.03;71.48;101153.00;4961994;28;20047;-67
2022/03/16 09:43:48;;;;;;;34.72;12.73;;;;;;;10.08;72.76;101161.47;4960090;28;20090;-69
2022/03/16 09:46:20;;;;;;;38.55;14.30;;;;;;;10.16;72.63;101157.56;4962787;28;20132;-73
2022/03/16 09:48:45;;;;;;;25.98;12.15;;;;;;;10.23;70.81;101149.34;4962599;28;20169;-71
2022/03/16 09:51:11;;;;;;;30.77;11.48;;;;;;;10.34;70.24;101158.38;4961875;28;20180;-71
2022/03/16 09:53:37;;;;;;;28.33;12.63;;;;;;;10.42;68.91;101158.03;4960524;28;20039;-69
2022/03/16 09:56:03;;;;;;;24.60;11.07;;;;;;;10.51;69.38;101151.44;4991836;28;20502;-68
2022/03/16 09:58:28;;;;;;;28.23;10.75;;;;;;;10.49;66.75;101155.91;5043216;28;20029;-71
2022/03/16 10:00:55;;;;;;;33.13;11.60;;;;;;;10.55;67.25;101152.97;5041591;28;20634;-70
2022/03/16 10:03:22;;;;;;;38.97;12.48;;;;;;;10.69;68.13;101150.47;5040692;28;20064;-73
2022/03/16 10:05:48;;;;;;;21.48;11.73;;;;;;;10.82;67.19;101145.38;5042247;28;20102;-73
2022/03/16 10:08:24;;;;;;;23.70;11.85;;;;;;;10.81;66.55;101148.94;5043208;28;20036;-71
2022/03/16 10:13:34;;;;;;;31.20;12.45;;;;;;;10.96;66.69;101147.25;5048628;28;20122;-73
2022/03/16 10:16:10;;;;;;;25.08;11.13;;;;;;;10.95;65.95;101146.41;5049342;28;20025;-71
2022/03/16 10:18:36;;;;;;;28.80;12.50;;;;;;;10.87;67.47;101143.38;5048101;28;20447;-70
2022/03/16 10:21:03;;;;;;;25.70;12.00;;;;;;;10.80;64.94;101150.72;5051431;28;20108;-74
2022/03/16 10:23:30;;;;;;;26.17;12.52;;;;;;;11.02;66.23;101147.78;5049210;28;20029;-68
2022/03/16 10:25:59;;;;;;;24.35;9.60;;;;;;;10.89;63.21;101141.50;5047434;28;20064;-74
2022/03/16 10:28:26;;;;;;;;;;;;;;;11.01;64.15;101148.72;5049441;28;20017;-72
2022/03/16 10:30:55;;;;;;;27.27;11.75;;;;;;;11.16;64.11;101144.41;5048387;28;19913;-70
2022/03/16 10:33:23;;;;;;;22.40;11.20;;;;;;;11.29;63.56;101149.81;5048351;28;20194;-72
2022/03/16 10:36:01;;;;;;;29.17;10.38;;;;;;;11.44;63.69;101150.72;5049506;28;20127;-71
2022/03/16 10:38:28;;;;;;;25.93;10.83;;;;;;;11.56;63.89;101152.63;5047814;28;20033;-73
2022/03/16 10:40:56;;;;;;;31.92;12.18;;;;;;;11.63;62.38;101143.47;5049365;28;20036;-73
2022/03/16 10:49:10;;;;;;;25.17;10.77;;;;;;;11.79;60.53;101143.41;5045319;28;20110;-70
2022/03/16 10:51:37;;;;;;;24.05;10.63;;;;;;;11.81;60.60;101142.41;5046165;28;20094;-72
2022/03/16 10:54:04;;;;;;;21.60;10.98;;;;;;;11.95;59.94;101148.69;5060758;28;20150;-71
2022/03/16 10:56:31;;;;;;;25.50;10.60;;;;;;;11.95;58.46;101149.53;5047764;28;20039;-72
2022/03/16 10:58:58;;;;;;;23.17;10.93;;;;;;;12.07;59.18;101147.94;5048198;28;20200;-71
2022/03/16 11:01:26;;;;;;;24.38;11.45;;;;;;;12.00;60.61;101136.94;5046054;28;20096;-72
2022/03/16 11:03:53;;;;;;;24.10;11.68;;;;;;;11.81;60.79;101146.81;5047240;28;20029;-70
2022/03/16 11:06:22;;;;;;;36.67;12.88;;;;;;;11.92;61.13;101138.34;5048409;28;20037;-70
2022/03/16 11:08:51;;;;;;;30.92;11.05;;;;;;;12.07;60.75;101138.28;5047978;28;20457;-71
2022/03/16 11:14:02;;;;;;;22.02;11.05;;;;;;;12.43;59.57;101149.31;5048561;28;20349;-71
2022/03/16 11:16:29;;;;;;;30.58;16.67;;;;;;;12.52;58.40;101139.06;5048292;28;20047;-69
2022/03/16 11:18:55;;;;;;;35.05;13.30;;;;;;;12.69;60.40;101145.09;5048753;28;20020;-72
2022/03/16 11:21:29;;;;;;;44.78;12.80;;;;;;;12.67;60.12;101147.78;5048920;28;20045;-71
2022/03/16 11:26:50;;;;;;;22.38;10.30;;;;;;;12.69;56.99;101152.97;5047966;28;20080;-72